createdAt,value
2023-02-03T00:02:23.608Z,1.33
2023-02-03T00:07:25.486Z,1.20
2023-02-03T00:12:28.941Z,1.20
2023-02-03T00:17:30.500Z,1.40
2023-02-03T00:22:32.082Z,1.02
2023-02-03T00:27:35.029Z,1.10
2023-02-03T00:32:36.585Z,0.88
2023-02-03T00:37:38.106Z,1.90
2023-02-03T00:42:41.033Z,0.93
2023-02-03T00:47:42.648Z,1.20
2023-02-03T00:52:44.126Z,1.02
2023-02-03T00:57:47.111Z,1.10
2023-02-03T01:02:48.822Z,0.90
2023-02-03T01:07:50.440Z,1.10
2023-02-03T01:12:53.388Z,0.90
2023-02-03T01:17:56.233Z,0.93
2023-02-03T01:22:57.797Z,0.60
2023-02-03T01:28:00.779Z,0.80
2023-02-03T01:33:02.365Z,0.50
2023-02-03T01:38:03.932Z,0.82
2023-02-03T01:43:09.173Z,0.77
2023-02-03T01:48:10.664Z,0.93
2023-02-03T01:53:12.232Z,0.70
2023-02-03T01:58:18.700Z,0.63
2023-02-03T02:03:23.343Z,1.00
2023-02-03T02:08:25.034Z,1.00
2023-02-03T02:13:31.514Z,0.70
2023-02-03T02:19:00.857Z,0.80
2023-02-03T02:24:26.722Z,0.95
2023-02-03T02:29:50.045Z,1.08
2023-02-03T02:35:02.272Z,1.10
2023-02-03T02:40:14.785Z,1.25
2023-02-03T02:45:21.875Z,1.60
2023-02-03T02:50:28.412Z,0.95
2023-02-03T02:55:33.659Z,1.58
2023-02-03T03:00:36.324Z,0.95
2023-02-03T03:05:41.605Z,0.82
2023-02-03T03:10:44.910Z,0.90
2023-02-03T03:15:48.736Z,1.13
2023-02-03T03:20:55.917Z,1.10
2023-02-03T03:26:05.023Z,0.80
2023-02-03T03:31:06.595Z,1.30
2023-02-03T03:36:19.520Z,1.10
2023-02-03T03:41:30.533Z,1.17
2023-02-03T03:46:38.405Z,1.40
2023-02-03T03:51:44.391Z,1.10
2023-02-03T03:56:51.503Z,0.95
2023-02-03T04:01:53.514Z,1.20
2023-02-03T04:06:56.401Z,1.10
2023-02-03T04:11:58.201Z,1.10
2023-02-03T04:17:00.156Z,1.10
2023-02-03T04:22:03.081Z,1.05
2023-02-03T04:27:05.426Z,1.42
2023-02-03T04:32:07.111Z,1.20
2023-02-03T04:37:10.051Z,1.40
2023-02-03T04:42:11.598Z,1.30
2023-02-03T04:47:13.282Z,1.25
2023-02-03T04:52:16.378Z,1.30
2023-02-03T04:57:18.102Z,1.05
2023-02-03T05:02:19.632Z,1.30
2023-02-03T05:07:22.528Z,1.17
2023-02-03T05:12:24.065Z,1.20
2023-02-03T05:17:25.670Z,1.10
2023-02-03T05:22:28.571Z,1.10
2023-02-03T05:27:30.223Z,1.80
2023-02-03T05:32:31.836Z,1.13
2023-02-03T05:37:34.684Z,1.55
2023-02-03T05:42:36.158Z,1.52
2023-02-03T05:47:37.739Z,1.63
2023-02-03T05:52:40.650Z,1.40
2023-02-03T05:57:42.198Z,1.30
2023-02-03T06:02:43.676Z,1.38
2023-02-03T06:07:46.605Z,3.90
2023-02-03T06:12:48.364Z,1.38
2023-02-03T06:17:49.941Z,1.38
2023-02-03T06:22:52.795Z,1.30
2023-02-03T06:27:54.333Z,1.38
2023-02-03T06:32:55.993Z,1.40
2023-02-03T06:37:58.920Z,1.70
2023-02-03T06:43:00.520Z,1.70
2023-02-03T06:48:02.012Z,1.90
2023-02-03T06:53:04.904Z,2.38
2023-02-03T06:58:06.395Z,2.28
2023-02-03T07:03:07.967Z,2.28
2023-02-03T07:08:10.822Z,2.55
2023-02-03T07:13:12.325Z,4.18
2023-02-03T07:18:18.032Z,3.60
2023-02-03T07:23:24.349Z,3.17
2023-02-03T07:28:25.910Z,3.03
2023-02-03T07:33:27.502Z,3.13
2023-02-03T07:38:30.443Z,3.10
2023-02-03T07:43:32.028Z,2.90
2023-02-03T07:48:33.556Z,2.80
2023-02-03T07:53:36.463Z,3.10
2023-02-03T07:58:38.244Z,4.15
2023-02-03T08:03:40.089Z,3.20
2023-02-03T08:08:42.921Z,2.90
2023-02-03T08:13:44.431Z,2.83
2023-02-03T08:18:46.001Z,3.00
2023-02-03T08:23:48.942Z,2.35
2023-02-03T08:28:50.822Z,3.10
2023-02-03T08:33:52.364Z,2.10
2023-02-03T08:38:55.238Z,2.80
2023-02-03T08:43:56.820Z,2.10
2023-02-03T08:48:58.272Z,2.33
2023-02-03T08:54:01.129Z,2.50
2023-02-03T08:59:02.849Z,2.10
2023-02-03T09:04:04.625Z,2.22
2023-02-03T09:09:08.581Z,1.98
2023-02-03T09:14:10.863Z,2.20
2023-02-03T09:19:12.420Z,2.70
2023-02-03T09:24:15.605Z,2.03
2023-02-03T09:29:17.294Z,2.30
2023-02-03T09:34:19.703Z,1.90
2023-02-03T09:39:22.614Z,2.45
2023-02-03T09:44:30.275Z,2.53
2023-02-03T09:54:44.572Z,2.13
2023-02-03T09:59:46.141Z,1.80
2023-02-03T10:04:57.911Z,2.22
2023-02-03T10:10:10.074Z,2.30
2023-02-03T10:15:30.712Z,2.33
2023-02-03T10:20:38.655Z,2.40
2023-02-03T10:25:44.187Z,2.28
2023-02-03T10:30:49.296Z,5.80
2023-02-03T10:35:53.226Z,2.13
2023-02-03T10:40:56.183Z,2.45
2023-02-03T10:45:58.906Z,2.40
2023-02-03T10:51:02.778Z,1.98
2023-02-03T10:56:10.135Z,1.88
2023-02-03T11:01:13.843Z,2.20
2023-02-03T11:06:17.258Z,2.20
2023-02-03T11:11:25.563Z,3.50
2023-02-03T11:16:27.176Z,5.53
2023-02-03T11:21:31.524Z,3.10
2023-02-03T11:26:39.310Z,2.72
2023-02-03T11:31:47.960Z,2.20
2023-02-03T11:36:49.988Z,2.05
2023-02-03T11:41:54.372Z,3.70
2023-02-03T11:46:59.410Z,1.80
2023-02-03T11:52:07.910Z,1.58
2023-02-03T11:57:27.216Z,1.90
2023-02-03T12:02:58.571Z,1.80
2023-02-03T12:08:10.013Z,1.67
2023-02-03T12:13:24.477Z,1.20
2023-02-03T12:18:40.832Z,0.70
2023-02-03T12:23:52.465Z,0.80
2023-02-03T12:29:01.682Z,0.50
2023-02-03T12:34:13.272Z,0.60
2023-02-03T12:39:22.451Z,0.82
2023-02-03T12:44:31.842Z,0.50
2023-02-03T12:49:41.519Z,0.50
2023-02-03T12:54:49.579Z,0.50
2023-02-03T13:00:00.735Z,0.80
2023-02-03T13:05:10.675Z,0.70
2023-02-03T13:10:19.876Z,0.77
2023-02-03T13:15:28.321Z,0.60
2023-02-03T13:20:32.806Z,0.50
2023-02-03T13:25:48.433Z,0.52
2023-02-03T13:31:28.497Z,0.73
2023-02-03T13:37:06.768Z,0.70
2023-02-03T13:42:21.778Z,1.00
2023-02-03T13:47:29.722Z,0.77
2023-02-03T13:52:35.943Z,0.60
2023-02-03T13:57:38.578Z,0.80
2023-02-03T14:02:51.982Z,0.88
2023-02-03T14:07:53.497Z,0.70
2023-02-03T14:12:57.461Z,0.80
2023-02-03T14:18:32.065Z,0.60
2023-02-03T14:23:50.165Z,0.55
2023-02-03T14:28:53.839Z,1.50
2023-02-03T14:34:08.792Z,1.35
2023-02-03T14:39:52.553Z,0.68
2023-02-03T14:45:06.995Z,0.73
2023-02-03T14:56:11.639Z,0.90
2023-02-03T15:01:45.618Z,0.60
2023-02-03T15:06:50.716Z,0.70
2023-02-03T15:11:52.672Z,1.00
2023-02-03T15:16:57.287Z,0.82
2023-02-03T15:22:00.886Z,0.90
2023-02-03T15:27:02.525Z,0.70
2023-02-03T15:32:12.719Z,0.60
2023-02-03T15:37:19.761Z,0.75
2023-02-03T15:42:29.736Z,0.90
2023-02-03T15:47:35.302Z,0.80
2023-02-03T15:52:42.681Z,0.88
2023-02-03T15:57:47.643Z,0.82
2023-02-03T16:02:49.792Z,1.08
2023-02-03T16:07:53.229Z,1.23
2023-02-03T16:13:09.836Z,0.85
2023-02-03T16:18:17.443Z,1.45
2023-02-03T16:23:22.099Z,0.90
2023-02-03T16:28:23.668Z,1.10
2023-02-03T16:33:25.157Z,1.17
2023-02-03T16:38:28.863Z,0.90
2023-02-03T16:43:30.487Z,0.68
2023-02-03T16:48:32.851Z,0.80
2023-02-03T16:53:35.869Z,1.10
2023-02-03T16:58:37.450Z,0.60
2023-02-03T17:03:38.983Z,0.80
2023-02-03T17:08:42.093Z,1.40
2023-02-03T17:13:44.380Z,0.88
2023-02-03T17:18:46.823Z,0.88
2023-02-03T17:23:49.934Z,1.00
2023-02-03T17:28:51.445Z,1.63
2023-02-03T17:33:53.041Z,2.85
2023-02-03T17:54:55.859Z,1.38
2023-02-03T17:59:57.988Z,1.55
2023-02-03T18:05:00.036Z,1.48
2023-02-03T18:10:03.051Z,1.30
2023-02-03T18:15:04.966Z,1.20
2023-02-03T18:20:07.382Z,1.23
2023-02-03T18:25:11.042Z,1.00
2023-02-03T18:30:14.032Z,1.00
2023-02-03T18:35:15.657Z,1.05
2023-02-03T18:40:18.820Z,1.08
2023-02-03T18:45:20.436Z,1.00
2023-02-03T18:50:22.170Z,1.65
2023-02-03T18:55:25.145Z,1.67
2023-02-03T19:00:26.684Z,1.30
2023-02-03T19:05:29.139Z,1.38
2023-02-03T19:10:32.158Z,1.23
2023-02-03T19:15:33.782Z,1.35
2023-02-03T19:20:35.298Z,1.30
2023-02-03T19:25:38.438Z,1.60
2023-02-03T19:30:39.966Z,1.27
2023-02-03T19:35:41.680Z,1.08
2023-02-03T19:40:45.209Z,0.90
2023-02-03T19:45:46.800Z,0.90
2023-02-03T19:50:48.897Z,0.98
2023-02-03T19:55:52.116Z,1.75
2023-02-03T20:01:02.341Z,0.90
2023-02-03T20:06:04.089Z,0.90
2023-02-03T20:11:07.071Z,0.90
2023-02-03T20:16:08.929Z,0.80
2023-02-03T20:21:13.582Z,0.80
2023-02-03T20:26:16.551Z,0.80
2023-02-03T20:31:18.239Z,1.00
2023-02-03T20:36:19.921Z,0.80
2023-02-03T20:41:22.970Z,1.20
2023-02-03T20:46:24.616Z,0.65
2023-02-03T20:51:26.431Z,1.00
2023-02-03T20:56:29.377Z,3.30
2023-02-03T21:01:31.003Z,0.60
2023-02-03T21:06:34.285Z,1.63
2023-02-03T21:11:37.163Z,0.95
2023-02-03T21:16:38.895Z,1.05
2023-02-03T21:21:40.870Z,1.40
2023-02-03T21:26:43.764Z,0.80
2023-02-03T21:31:45.367Z,0.82
2023-02-03T21:36:46.936Z,0.73
2023-02-03T21:41:52.901Z,0.70
2023-02-03T21:46:54.581Z,0.80
2023-02-03T21:51:56.156Z,0.80
2023-02-03T21:56:59.672Z,0.60
2023-02-03T22:02:01.294Z,0.73
2023-02-03T22:07:14.621Z,0.63
2023-02-03T22:12:17.594Z,0.90
2023-02-03T22:17:19.134Z,0.60
2023-02-03T22:22:20.696Z,0.70
2023-02-03T22:27:23.714Z,0.70
2023-02-03T22:32:25.285Z,0.52
2023-02-03T22:37:26.856Z,0.70
2023-02-03T22:42:29.848Z,1.30
2023-02-03T22:47:31.358Z,0.70
2023-02-03T22:52:33.039Z,0.82
2023-02-03T22:57:36.110Z,0.85
2023-02-03T23:02:38.098Z,0.90
2023-02-03T23:07:40.478Z,0.77
2023-02-03T23:12:43.342Z,1.08
2023-02-03T23:17:45.751Z,1.17
2023-02-03T23:22:47.349Z,1.15
2023-02-03T23:27:50.481Z,1.00
2023-02-03T23:32:52.656Z,1.30
2023-02-03T23:37:54.387Z,1.08
2023-02-03T23:42:57.272Z,0.80
2023-02-03T23:47:58.786Z,1.23
2023-02-03T23:53:00.311Z,1.60
2023-02-03T23:58:03.362Z,1.42
